sensor_id;sensor_type;location;lat;lon;timestamp;P1;P2;P0
65556;PMS3003;52200;53.490;14.376;2023-05-10T00:01:41;15.25;11.00;6.00
65556;PMS3003;52200;53.490;14.376;2023-05-10T00:04:07;16.00;12.00;7.00
65556;PMS3003;52200;53.490;14.376;2023-05-10T00:06:32;15.50;11.50;7.00
65556;PMS3003;52200;53.490;14.376;2023-05-10T00:08:58;15.75;11.50;7.00
65556;PMS3003;52200;53.490;14.376;2023-05-10T00:11:24;16.75;11.50;6.00
65556;PMS3003;52200;53.490;14.376;2023-05-10T00:13:49;16.00;11.75;8.50
65556;PMS3003;52200;53.490;14.376;2023-05-10T00:16:14;16.00;11.50;6.75
65556;PMS3003;52200;53.490;14.376;2023-05-10T00:18:40;15.00;11.00;8.25
65556;PMS3003;52200;53.490;14.376;2023-05-10T00:21:06;15.00;11.25;6.75
65556;PMS3003;52200;53.490;14.376;2023-05-10T00:23:31;15.75;13.25;8.75
65556;PMS3003;52200;53.490;14.376;2023-05-10T00:25:57;15.00;11.25;6.00
65556;PMS3003;52200;53.490;14.376;2023-05-10T00:28:22;16.50;12.00;6.00
65556;PMS3003;52200;53.490;14.376;2023-05-10T00:30:48;20.50;14.00;7.25
65556;PMS3003;52200;53.490;14.376;2023-05-10T00:33:13;14.75;11.25;6.75
65556;PMS3003;52200;53.490;14.376;2023-05-10T00:35:39;16.50;11.00;5.50
65556;PMS3003;52200;53.490;14.376;2023-05-10T00:38:05;15.20;11.20;6.80
65556;PMS3003;52200;53.490;14.376;2023-05-10T00:40:31;17.00;11.60;7.80
65556;PMS3003;52200;53.490;14.376;2023-05-10T00:42:57;17.00;12.00;6.00
65556;PMS3003;52200;53.490;14.376;2023-05-10T00:45:23;18.00;12.60;7.80
65556;PMS3003;52200;53.490;14.376;2023-05-10T00:47:50;18.20;12.20;8.00
65556;PMS3003;52200;53.490;14.376;2023-05-10T00:50:19;18.40;12.60;7.00
65556;PMS3003;52200;53.490;14.376;2023-05-10T00:52:46;17.80;12.20;7.00
65556;PMS3003;52200;53.490;14.376;2023-05-10T00:55:11;18.00;12.00;9.00
65556;PMS3003;52200;53.490;14.376;2023-05-10T00:57:37;17.80;13.00;8.40
65556;PMS3003;52200;53.490;14.376;2023-05-10T01:00:03;17.60;11.00;6.20
65556;PMS3003;52200;53.490;14.376;2023-05-10T01:02:30;16.00;11.60;7.80
65556;PMS3003;52200;53.490;14.376;2023-05-10T01:04:55;15.00;11.75;7.00
65556;PMS3003;52200;53.490;14.376;2023-05-10T01:07:20;17.75;12.50;8.00
65556;PMS3003;52200;53.490;14.376;2023-05-10T01:09:46;17.50;13.00;8.25
65556;PMS3003;52200;53.490;14.376;2023-05-10T01:12:12;15.75;11.25;9.00
65556;PMS3003;52200;53.490;14.376;2023-05-10T01:14:37;19.75;14.25;10.00
65556;PMS3003;52200;53.490;14.376;2023-05-10T01:17:03;19.75;14.50;8.50
65556;PMS3003;52200;53.490;14.376;2023-05-10T01:19:31;17.60;12.40;8.20
65556;PMS3003;52200;53.490;14.376;2023-05-10T01:31:11;19.60;16.00;8.00
65556;PMS3003;52200;53.490;14.376;2023-05-10T01:34:10;19.20;15.40;9.20
65556;PMS3003;52200;53.490;14.376;2023-05-10T01:42:25;24.00;17.40;9.60
65556;PMS3003;52200;53.490;14.376;2023-05-10T01:44:58;18.40;13.80;9.80
65556;PMS3003;52200;53.490;14.376;2023-05-10T01:47:35;19.60;16.00;9.00
65556;PMS3003;52200;53.490;14.376;2023-05-10T01:50:06;22.80;16.60;9.80
65556;PMS3003;52200;53.490;14.376;2023-05-10T01:52:37;19.80;12.60;8.80
65556;PMS3003;52200;53.490;14.376;2023-05-10T01:55:09;23.00;14.80;9.00
65556;PMS3003;52200;53.490;14.376;2023-05-10T01:57:42;19.20;16.00;10.00
65556;PMS3003;52200;53.490;14.376;2023-05-10T02:00:09;19.80;16.40;10.00
65556;PMS3003;52200;53.490;14.376;2023-05-10T02:02:37;18.00;13.00;9.00
65556;PMS3003;52200;53.490;14.376;2023-05-10T02:05:05;20.00;15.40;9.00
65556;PMS3003;52200;53.490;14.376;2023-05-10T02:07:31;22.20;17.40;9.60
65556;PMS3003;52200;53.490;14.376;2023-05-10T02:10:00;18.40;12.60;9.00
65556;PMS3003;52200;53.490;14.376;2023-05-10T02:12:29;22.00;17.00;10.80
65556;PMS3003;52200;53.490;14.376;2023-05-10T02:14:57;20.20;15.40;9.80
65556;PMS3003;52200;53.490;14.376;2023-05-10T02:17:27;21.80;15.80;9.20
65556;PMS3003;52200;53.490;14.376;2023-05-10T02:19:53;23.60;16.60;9.80
65556;PMS3003;52200;53.490;14.376;2023-05-10T02:22:21;19.00;15.40;9.20
65556;PMS3003;52200;53.490;14.376;2023-05-10T02:24:48;22.60;17.00;9.60
65556;PMS3003;52200;53.490;14.376;2023-05-10T02:27:15;22.00;16.40;9.40
65556;PMS3003;52200;53.490;14.376;2023-05-10T02:29:43;19.20;15.60;9.20
65556;PMS3003;52200;53.490;14.376;2023-05-10T02:32:10;21.60;17.20;10.80
65556;PMS3003;52200;53.490;14.376;2023-05-10T02:34:37;22.00;18.20;11.00
65556;PMS3003;52200;53.490;14.376;2023-05-10T02:37:04;21.60;15.00;9.80
65556;PMS3003;52200;53.490;14.376;2023-05-10T02:39:31;25.00;20.60;10.80
65556;PMS3003;52200;53.490;14.376;2023-05-10T02:41:57;22.40;15.80;10.00
65556;PMS3003;52200;53.490;14.376;2023-05-10T02:44:25;20.60;15.20;10.20
65556;PMS3003;52200;53.490;14.376;2023-05-10T02:46:56;21.40;17.40;10.00
65556;PMS3003;52200;53.490;14.376;2023-05-10T02:49:22;20.20;15.40;9.20
65556;PMS3003;52200;53.490;14.376;2023-05-10T02:51:49;22.50;15.75;11.00
65556;PMS3003;52200;53.490;14.376;2023-05-10T02:54:24;24.00;16.40;10.20
65556;PMS3003;52200;53.490;14.376;2023-05-10T02:57:02;22.40;19.40;10.80
65556;PMS3003;52200;53.490;14.376;2023-05-10T02:59:30;20.20;15.40;9.00
65556;PMS3003;52200;53.490;14.376;2023-05-10T03:01:57;22.80;16.60;9.80
65556;PMS3003;52200;53.490;14.376;2023-05-10T03:04:25;22.60;17.40;10.00
65556;PMS3003;52200;53.490;14.376;2023-05-10T03:06:50;20.25;14.75;9.00
65556;PMS3003;52200;53.490;14.376;2023-05-10T03:09:16;21.75;16.00;10.25
65556;PMS3003;52200;53.490;14.376;2023-05-10T03:12:01;23.25;18.50;11.25
65556;PMS3003;52200;53.490;14.376;2023-05-10T03:14:37;21.80;17.40;10.00
65556;PMS3003;52200;53.490;14.376;2023-05-10T03:17:11;21.00;15.40;9.80
65556;PMS3003;52200;53.490;14.376;2023-05-10T03:19:58;23.40;17.60;10.80
65556;PMS3003;52200;53.490;14.376;2023-05-10T03:22:34;22.80;17.00;10.60
65556;PMS3003;52200;53.490;14.376;2023-05-10T03:25:04;19.60;14.60;9.00
65556;PMS3003;52200;53.490;14.376;2023-05-10T03:27:33;21.60;17.00;10.00
65556;PMS3003;52200;53.490;14.376;2023-05-10T03:30:01;23.60;17.20;11.60
65556;PMS3003;52200;53.490;14.376;2023-05-10T03:32:28;24.00;18.60;10.00
65556;PMS3003;52200;53.490;14.376;2023-05-10T03:34:56;24.00;17.80;11.00
65556;PMS3003;52200;53.490;14.376;2023-05-10T03:37:22;21.00;15.25;9.75
65556;PMS3003;52200;53.490;14.376;2023-05-10T03:39:47;21.25;16.50;9.00
65556;PMS3003;52200;53.490;14.376;2023-05-10T03:42:13;22.00;15.25;10.00
65556;PMS3003;52200;53.490;14.376;2023-05-10T03:44:39;24.25;19.50;10.25
65556;PMS3003;52200;53.490;14.376;2023-05-10T03:47:04;20.80;15.20;10.00
65556;PMS3003;52200;53.490;14.376;2023-05-10T03:49:30;23.75;18.75;10.00
65556;PMS3003;52200;53.490;14.376;2023-05-10T03:51:55;21.75;16.00;10.00
65556;PMS3003;52200;53.490;14.376;2023-05-10T03:54:21;23.50;16.75;10.75
65556;PMS3003;52200;53.490;14.376;2023-05-10T03:56:46;20.00;14.75;10.00
65556;PMS3003;52200;53.490;14.376;2023-05-10T03:59:13;23.60;17.60;10.00
65556;PMS3003;52200;53.490;14.376;2023-05-10T04:01:38;21.00;15.50;9.25
65556;PMS3003;52200;53.490;14.376;2023-05-10T04:04:04;22.25;17.25;10.25
65556;PMS3003;52200;53.490;14.376;2023-05-10T04:06:29;24.00;18.00;10.00
65556;PMS3003;52200;53.490;14.376;2023-05-10T04:08:54;20.25;15.50;10.00
65556;PMS3003;52200;53.490;14.376;2023-05-10T04:11:20;22.75;18.00;10.75
65556;PMS3003;52200;53.490;14.376;2023-05-10T04:13:47;21.00;15.40;10.00
65556;PMS3003;52200;53.490;14.376;2023-05-10T04:16:12;26.25;17.00;9.75
65556;PMS3003;52200;53.490;14.376;2023-05-10T04:18:38;22.00;16.00;11.00
65556;PMS3003;52200;53.490;14.376;2023-05-10T04:21:04;22.20;15.40;10.00
65556;PMS3003;52200;53.490;14.376;2023-05-10T04:23:35;21.00;16.60;12.00
65556;PMS3003;52200;53.490;14.376;2023-05-10T04:26:01;18.50;14.75;9.50
65556;PMS3003;52200;53.490;14.376;2023-05-10T04:28:27;23.20;18.60;10.80
65556;PMS3003;52200;53.490;14.376;2023-05-10T04:30:52;21.50;16.50;9.50
65556;PMS3003;52200;53.490;14.376;2023-05-10T04:33:18;22.25;16.75;10.00
65556;PMS3003;52200;53.490;14.376;2023-05-10T04:35:43;25.00;18.25;11.00
65556;PMS3003;52200;53.490;14.376;2023-05-10T04:38:10;22.80;16.00;10.20
65556;PMS3003;52200;53.490;14.376;2023-05-10T04:40:35;23.50;17.00;11.75
65556;PMS3003;52200;53.490;14.376;2023-05-10T04:43:01;18.50;14.50;9.00
65556;PMS3003;52200;53.490;14.376;2023-05-10T04:45:27;21.40;15.20;9.60
65556;PMS3003;52200;53.490;14.376;2023-05-10T04:47:53;24.50;17.50;10.50
65556;PMS3003;52200;53.490;14.376;2023-05-10T04:50:18;23.00;18.50;12.00
65556;PMS3003;52200;53.490;14.376;2023-05-10T04:52:44;23.25;17.50;10.75
65556;PMS3003;52200;53.490;14.376;2023-05-10T04:55:09;23.80;18.00;11.00
65556;PMS3003;52200;53.490;14.376;2023-05-10T04:57:35;20.50;17.00;11.00
65556;PMS3003;52200;53.490;14.376;2023-05-10T05:00:00;19.75;14.50;9.75
65556;PMS3003;52200;53.490;14.376;2023-05-10T05:02:26;24.60;16.80;10.00
65556;PMS3003;52200;53.490;14.376;2023-05-10T05:04:52;20.25;17.00;11.25
65556;PMS3003;52200;53.490;14.376;2023-05-10T05:07:17;20.75;14.25;9.00
65556;PMS3003;52200;53.490;14.376;2023-05-10T05:09:42;20.50;17.75;9.75
65556;PMS3003;52200;53.490;14.376;2023-05-10T05:12:08;23.50;18.50;10.00
65556;PMS3003;52200;53.490;14.376;2023-05-10T05:14:38;24.80;17.00;10.00
65556;PMS3003;52200;53.490;14.376;2023-05-10T05:17:04;22.25;17.50;11.50
65556;PMS3003;52200;53.490;14.376;2023-05-10T05:19:30;20.75;13.50;9.50
65556;PMS3003;52200;53.490;14.376;2023-05-10T05:21:56;23.20;18.20;10.00
65556;PMS3003;52200;53.490;14.376;2023-05-10T05:24:21;23.00;17.50;10.25
65556;PMS3003;52200;53.490;14.376;2023-05-10T05:26:47;20.75;14.75;9.75
65556;PMS3003;52200;53.490;14.376;2023-05-10T05:29:13;21.00;15.60;9.60
65556;PMS3003;52200;53.490;14.376;2023-05-10T05:31:38;21.75;15.00;10.25
65556;PMS3003;52200;53.490;14.376;2023-05-10T05:34:03;18.25;14.00;8.75
65556;PMS3003;52200;53.490;14.376;2023-05-10T05:36:29;27.75;18.25;10.00
65556;PMS3003;52200;53.490;14.376;2023-05-10T05:38:55;22.00;16.60;9.80
65556;PMS3003;52200;53.490;14.376;2023-05-10T05:41:21;22.50;14.25;11.00
65556;PMS3003;52200;53.490;14.376;2023-05-10T05:43:46;20.25;15.50;6.75
65556;PMS3003;52200;53.490;14.376;2023-05-10T05:46:12;23.00;17.25;9.75
65556;PMS3003;52200;53.490;14.376;2023-05-10T05:48:37;18.75;15.00;11.00
65556;PMS3003;52200;53.490;14.376;2023-05-10T05:51:03;20.50;15.50;8.00
65556;PMS3003;52200;53.490;14.376;2023-05-10T05:53:28;19.00;13.75;9.75
65556;PMS3003;52200;53.490;14.376;2023-05-10T05:55:54;23.50;15.75;9.00
65556;PMS3003;52200;53.490;14.376;2023-05-10T05:58:21;22.80;15.00;11.00
65556;PMS3003;52200;53.490;14.376;2023-05-10T06:00:47;18.40;14.60;8.00
65556;PMS3003;52200;53.490;14.376;2023-05-10T06:03:13;23.75;16.50;9.00
65556;PMS3003;52200;53.490;14.376;2023-05-10T06:05:38;21.50;15.00;8.25
65556;PMS3003;52200;53.490;14.376;2023-05-10T06:08:04;21.50;15.25;9.00
65556;PMS3003;52200;53.490;14.376;2023-05-10T06:10:29;19.00;14.00;7.25
65556;PMS3003;52200;53.490;14.376;2023-05-10T06:12:55;19.50;13.25;8.00
65556;PMS3003;52200;53.490;14.376;2023-05-10T06:15:21;19.50;13.75;9.00
65556;PMS3003;52200;53.490;14.376;2023-05-10T06:17:46;18.25;11.50;7.50
65556;PMS3003;52200;53.490;14.376;2023-05-10T06:20:14;16.80;12.40;7.40
65556;PMS3003;52200;53.490;14.376;2023-05-10T06:22:40;17.60;13.40;8.20
65556;PMS3003;52200;53.490;14.376;2023-05-10T06:25:06;19.50;15.00;8.50
65556;PMS3003;52200;53.490;14.376;2023-05-10T06:27:32;17.40;12.20;7.80
65556;PMS3003;52200;53.490;14.376;2023-05-10T06:29:58;16.25;11.25;7.00
65556;PMS3003;52200;53.490;14.376;2023-05-10T06:32:23;17.75;13.00;8.25
65556;PMS3003;52200;53.490;14.376;2023-05-10T06:34:48;19.00;13.75;9.00
65556;PMS3003;52200;53.490;14.376;2023-05-10T06:37:14;17.25;11.50;8.00
65556;PMS3003;52200;53.490;14.376;2023-05-10T06:39:39;17.75;11.75;8.00
65556;PMS3003;52200;53.490;14.376;2023-05-10T06:42:05;17.50;9.75;7.25
65556;PMS3003;52200;53.490;14.376;2023-05-10T06:44:30;16.75;12.25;7.00
65556;PMS3003;52200;53.490;14.376;2023-05-10T06:46:56;16.00;11.50;7.00
65556;PMS3003;52200;53.490;14.376;2023-05-10T06:49:21;14.75;9.00;6.00
65556;PMS3003;52200;53.490;14.376;2023-05-10T06:51:47;14.25;10.75;6.00
65556;PMS3003;52200;53.490;14.376;2023-05-10T06:54:13;15.60;10.80;6.80
65556;PMS3003;52200;53.490;14.376;2023-05-10T06:56:38;16.25;11.25;7.00
65556;PMS3003;52200;53.490;14.376;2023-05-10T06:59:04;15.00;11.50;7.00
65556;PMS3003;52200;53.490;14.376;2023-05-10T07:01:29;18.50;10.50;6.00
65556;PMS3003;52200;53.490;14.376;2023-05-10T07:03:55;14.25;10.00;6.00
65556;PMS3003;52200;53.490;14.376;2023-05-10T07:06:20;14.00;10.00;6.50
65556;PMS3003;52200;53.490;14.376;2023-05-10T07:08:46;14.00;10.00;6.00
65556;PMS3003;52200;53.490;14.376;2023-05-10T07:11:11;15.00;10.50;6.00
65556;PMS3003;52200;53.490;14.376;2023-05-10T07:13:37;12.25;8.50;5.25
65556;PMS3003;52200;53.490;14.376;2023-05-10T07:16:04;12.80;9.00;5.00
65556;PMS3003;52200;53.490;14.376;2023-05-10T07:18:31;14.20;9.00;6.00
65556;PMS3003;52200;53.490;14.376;2023-05-10T07:20:57;14.50;9.00;6.00
65556;PMS3003;52200;53.490;14.376;2023-05-10T07:23:22;16.00;10.40;5.20
65556;PMS3003;52200;53.490;14.376;2023-05-10T07:25:48;15.75;9.25;5.50
65556;PMS3003;52200;53.490;14.376;2023-05-10T07:28:17;13.80;9.40;5.80
65556;PMS3003;52200;53.490;14.376;2023-05-10T07:30:43;13.40;8.20;4.40
65556;PMS3003;52200;53.490;14.376;2023-05-10T07:33:09;12.75;9.50;4.50
65556;PMS3003;52200;53.490;14.376;2023-05-10T07:35:35;12.20;8.80;5.20
65556;PMS3003;52200;53.490;14.376;2023-05-10T07:38:01;12.00;8.00;5.00
65556;PMS3003;52200;53.490;14.376;2023-05-10T07:40:27;12.80;9.40;5.00
65556;PMS3003;52200;53.490;14.376;2023-05-10T07:42:53;15.20;9.20;6.20
65556;PMS3003;52200;53.490;14.376;2023-05-10T07:45:19;12.00;7.50;5.00
65556;PMS3003;52200;53.490;14.376;2023-05-10T07:47:45;13.40;8.80;6.00
65556;PMS3003;52200;53.490;14.376;2023-05-10T07:50:10;14.75;10.75;5.75
65556;PMS3003;52200;53.490;14.376;2023-05-10T07:52:35;12.00;8.00;5.00
65556;PMS3003;52200;53.490;14.376;2023-05-10T07:55:01;14.00;8.75;5.00
65556;PMS3003;52200;53.490;14.376;2023-05-10T07:57:26;14.50;9.00;6.75
65556;PMS3003;52200;53.490;14.376;2023-05-10T07:59:52;12.50;9.00;6.00
65556;PMS3003;52200;53.490;14.376;2023-05-10T08:02:17;15.75;10.50;5.50
65556;PMS3003;52200;53.490;14.376;2023-05-10T08:04:42;12.50;8.75;5.00
65556;PMS3003;52200;53.490;14.376;2023-05-10T08:07:08;13.75;8.00;6.00
65556;PMS3003;52200;53.490;14.376;2023-05-10T08:09:33;13.50;8.00;5.50
65556;PMS3003;52200;53.490;14.376;2023-05-10T08:11:59;12.75;9.00;5.50
65556;PMS3003;52200;53.490;14.376;2023-05-10T08:14:25;13.25;8.00;4.50
65556;PMS3003;52200;53.490;14.376;2023-05-10T08:16:51;14.20;9.00;6.00
65556;PMS3003;52200;53.490;14.376;2023-05-10T08:19:16;12.25;8.00;6.00
65556;PMS3003;52200;53.490;14.376;2023-05-10T08:21:44;13.20;8.20;5.00
65556;PMS3003;52200;53.490;14.376;2023-05-10T08:24:10;13.20;8.80;5.80
65556;PMS3003;52200;53.490;14.376;2023-05-10T08:26:36;14.00;10.00;5.25
65556;PMS3003;52200;53.490;14.376;2023-05-10T08:29:01;13.00;9.50;6.00
65556;PMS3003;52200;53.490;14.376;2023-05-10T08:31:27;12.00;7.80;5.20
65556;PMS3003;52200;53.490;14.376;2023-05-10T08:33:53;10.25;7.00;3.75
65556;PMS3003;52200;53.490;14.376;2023-05-10T08:36:18;15.00;13.50;5.75
65556;PMS3003;52200;53.490;14.376;2023-05-10T08:38:46;12.60;9.80;4.20
65556;PMS3003;52200;53.490;14.376;2023-05-10T08:41:13;12.00;9.20;4.00
65556;PMS3003;52200;53.490;14.376;2023-05-10T08:43:39;11.25;8.00;4.50
65556;PMS3003;52200;53.490;14.376;2023-05-10T08:46:06;11.60;9.20;4.80
65556;PMS3003;52200;53.490;14.376;2023-05-10T08:48:34;11.00;8.60;4.20
65556;PMS3003;52200;53.490;14.376;2023-05-10T08:51:00;10.00;8.60;4.00
65556;PMS3003;52200;53.490;14.376;2023-05-10T08:53:28;7.00;6.20;3.20
65556;PMS3003;52200;53.490;14.376;2023-05-10T08:55:56;13.00;8.00;3.60
65556;PMS3003;52200;53.490;14.376;2023-05-10T08:58:22;10.60;9.60;4.60
65556;PMS3003;52200;53.490;14.376;2023-05-10T09:00:48;11.25;9.00;4.00
65556;PMS3003;52200;53.490;14.376;2023-05-10T09:03:15;9.40;8.40;3.00
65556;PMS3003;52200;53.490;14.376;2023-05-10T09:05:41;9.20;5.60;2.60
65556;PMS3003;52200;53.490;14.376;2023-05-10T09:08:07;7.75;5.75;3.00
65556;PMS3003;52200;53.490;14.376;2023-05-10T09:10:33;10.60;6.80;3.40
65556;PMS3003;52200;53.490;14.376;2023-05-10T09:13:00;9.40;8.20;3.40
65556;PMS3003;52200;53.490;14.376;2023-05-10T09:15:26;9.60;8.00;3.00
65556;PMS3003;52200;53.490;14.376;2023-05-10T09:17:52;9.50;8.50;4.00
65556;PMS3003;52200;53.490;14.376;2023-05-10T09:20:17;10.75;8.75;4.00
65556;PMS3003;52200;53.490;14.376;2023-05-10T09:22:43;9.25;8.00;3.00
65556;PMS3003;52200;53.490;14.376;2023-05-10T09:25:09;11.00;9.25;4.00
65556;PMS3003;52200;53.490;14.376;2023-05-10T09:27:37;12.80;10.80;3.40
65556;PMS3003;52200;53.490;14.376;2023-05-10T09:30:04;9.40;8.00;3.00
65556;PMS3003;52200;53.490;14.376;2023-05-10T09:32:38;9.80;9.00;3.80
65556;PMS3003;52200;53.490;14.376;2023-05-10T09:37:34;11.20;9.20;3.80
65556;PMS3003;52200;53.490;14.376;2023-05-10T09:39:59;9.75;8.25;3.00
65556;PMS3003;52200;53.490;14.376;2023-05-10T09:42:25;13.75;10.00;4.75
65556;PMS3003;52200;53.490;14.376;2023-05-10T09:44:50;10.50;9.50;4.00
65556;PMS3003;52200;53.490;14.376;2023-05-10T09:47:17;9.20;9.00;4.00
65556;PMS3003;52200;53.490;14.376;2023-05-10T09:49:49;9.00;8.80;3.20
65556;PMS3003;52200;53.490;14.376;2023-05-10T09:52:16;11.00;11.00;4.00
65556;PMS3003;52200;53.490;14.376;2023-05-10T09:54:44;9.00;9.00;4.25
65556;PMS3003;52200;53.490;14.376;2023-05-10T09:57:21;10.40;8.00;3.00
65556;PMS3003;52200;53.490;14.376;2023-05-10T09:59:48;9.40;9.20;4.00
65556;PMS3003;52200;53.490;14.376;2023-05-10T10:02:14;8.60;7.60;3.60
65556;PMS3003;52200;53.490;14.376;2023-05-10T10:04:40;8.75;8.75;4.00
65556;PMS3003;52200;53.490;14.376;2023-05-10T10:07:06;9.40;8.40;3.20
65556;PMS3003;52200;53.490;14.376;2023-05-10T10:09:33;9.20;8.20;3.00
65556;PMS3003;52200;53.490;14.376;2023-05-10T10:12:00;8.80;8.20;2.80
65556;PMS3003;52200;53.490;14.376;2023-05-10T10:14:26;9.40;8.60;4.00
65556;PMS3003;52200;53.490;14.376;2023-05-10T10:16:53;10.60;8.60;4.00
65556;PMS3003;52200;53.490;14.376;2023-05-10T10:19:19;7.20;7.20;2.00
65556;PMS3003;52200;53.490;14.376;2023-05-10T10:21:45;8.20;7.80;2.80
65556;PMS3003;52200;53.490;14.376;2023-05-10T10:24:11;7.00;6.20;1.00
65556;PMS3003;52200;53.490;14.376;2023-05-10T10:26:37;7.25;6.25;2.00
65556;PMS3003;52200;53.490;14.376;2023-05-10T10:31:34;8.20;7.40;2.00
65556;PMS3003;52200;53.490;14.376;2023-05-10T10:34:08;6.80;6.00;1.60
65556;PMS3003;52200;53.490;14.376;2023-05-10T10:36:45;6.60;6.40;1.60
65556;PMS3003;52200;53.490;14.376;2023-05-10T10:39:12;9.00;8.00;2.60
65556;PMS3003;52200;53.490;14.376;2023-05-10T10:41:50;6.00;6.00;2.00
65556;PMS3003;52200;53.490;14.376;2023-05-10T10:46:59;7.00;6.80;2.60
65556;PMS3003;52200;53.490;14.376;2023-05-10T10:57:28;7.80;7.00;3.00
65556;PMS3003;52200;53.490;14.376;2023-05-10T11:02:49;10.20;8.40;2.60
65556;PMS3003;52200;53.490;14.376;2023-05-10T11:05:23;7.40;7.40;2.80
65556;PMS3003;52200;53.490;14.376;2023-05-10T11:07:57;8.00;8.00;3.00
65556;PMS3003;52200;53.490;14.376;2023-05-10T11:10:25;8.20;8.20;2.20
65556;PMS3003;52200;53.490;14.376;2023-05-10T11:13:01;7.60;7.60;3.00
65556;PMS3003;52200;53.490;14.376;2023-05-10T11:15:31;7.80;7.40;3.00
65556;PMS3003;52200;53.490;14.376;2023-05-10T11:17:58;7.40;7.00;1.80
65556;PMS3003;52200;53.490;14.376;2023-05-10T11:20:26;6.60;6.00;2.00
65556;PMS3003;52200;53.490;14.376;2023-05-10T11:22:59;9.20;7.80;2.00
65556;PMS3003;52200;53.490;14.376;2023-05-10T11:25:44;8.00;7.00;2.80
65556;PMS3003;52200;53.490;14.376;2023-05-10T11:28:13;8.00;5.40;2.00
65556;PMS3003;52200;53.490;14.376;2023-05-10T11:30:40;8.60;6.20;2.00
65556;PMS3003;52200;53.490;14.376;2023-05-10T11:33:07;6.80;6.80;2.40
65556;PMS3003;52200;53.490;14.376;2023-05-10T11:35:37;8.60;8.00;3.00
65556;PMS3003;52200;53.490;14.376;2023-05-10T11:38:09;7.20;7.00;2.40
65556;PMS3003;52200;53.490;14.376;2023-05-10T11:40:37;6.40;6.20;2.00
65556;PMS3003;52200;53.490;14.376;2023-05-10T11:43:03;8.20;7.40;1.00
65556;PMS3003;52200;53.490;14.376;2023-05-10T11:45:33;8.00;6.80;2.40
65556;PMS3003;52200;53.490;14.376;2023-05-10T11:48:00;8.80;6.00;1.00
65556;PMS3003;52200;53.490;14.376;2023-05-10T11:50:26;7.60;7.60;2.40
65556;PMS3003;52200;53.490;14.376;2023-05-10T11:52:53;9.40;7.60;2.00
65556;PMS3003;52200;53.490;14.376;2023-05-10T11:55:21;7.00;6.80;2.00
65556;PMS3003;52200;53.490;14.376;2023-05-10T11:57:52;6.60;6.60;2.60
65556;PMS3003;52200;53.490;14.376;2023-05-10T12:00:19;6.40;6.40;2.20
65556;PMS3003;52200;53.490;14.376;2023-05-10T12:02:45;6.00;6.00;2.00
65556;PMS3003;52200;53.490;14.376;2023-05-10T12:05:10;6.25;6.25;1.00
65556;PMS3003;52200;53.490;14.376;2023-05-10T12:07:37;8.00;7.60;2.60
65556;PMS3003;52200;53.490;14.376;2023-05-10T12:10:06;7.00;7.00;2.25
65556;PMS3003;52200;53.490;14.376;2023-05-10T12:12:37;6.00;6.00;1.00
65556;PMS3003;52200;53.490;14.376;2023-05-10T12:15:05;9.00;8.00;3.20
65556;PMS3003;52200;53.490;14.376;2023-05-10T12:17:37;7.60;7.20;2.00
65556;PMS3003;52200;53.490;14.376;2023-05-10T12:20:16;8.40;8.00;2.80
65556;PMS3003;52200;53.490;14.376;2023-05-10T12:22:44;6.20;6.00;2.00
65556;PMS3003;52200;53.490;14.376;2023-05-10T12:25:10;7.40;7.00;2.00
65556;PMS3003;52200;53.490;14.376;2023-05-10T12:27:36;8.50;7.50;3.00
65556;PMS3003;52200;53.490;14.376;2023-05-10T12:30:02;8.00;7.25;2.75
65556;PMS3003;52200;53.490;14.376;2023-05-10T12:32:43;7.80;6.40;2.00
65556;PMS3003;52200;53.490;14.376;2023-05-10T12:35:09;9.00;7.80;2.20
65556;PMS3003;52200;53.490;14.376;2023-05-10T12:37:35;8.00;7.00;3.00
65556;PMS3003;52200;53.490;14.376;2023-05-10T12:40:05;6.80;6.80;2.00
65556;PMS3003;52200;53.490;14.376;2023-05-10T12:42:38;7.60;7.60;2.80
65556;PMS3003;52200;53.490;14.376;2023-05-10T12:45:05;7.00;6.20;2.00
65556;PMS3003;52200;53.490;14.376;2023-05-10T12:47:32;6.40;6.00;2.00
65556;PMS3003;52200;53.490;14.376;2023-05-10T12:49:58;6.40;6.40;1.80
65556;PMS3003;52200;53.490;14.376;2023-05-10T12:52:24;7.60;7.00;2.00
65556;PMS3003;52200;53.490;14.376;2023-05-10T12:54:52;7.80;6.80;2.00
65556;PMS3003;52200;53.490;14.376;2023-05-10T12:57:18;7.40;7.00;2.20
65556;PMS3003;52200;53.490;14.376;2023-05-10T12:59:45;8.40;7.00;2.40
65556;PMS3003;52200;53.490;14.376;2023-05-10T13:02:10;6.50;6.50;2.00
65556;PMS3003;52200;53.490;14.376;2023-05-10T13:04:36;9.00;8.50;2.00
65556;PMS3003;52200;53.490;14.376;2023-05-10T13:07:05;9.20;8.60;3.00
65556;PMS3003;52200;53.490;14.376;2023-05-10T13:09:34;7.00;7.00;2.00
65556;PMS3003;52200;53.490;14.376;2023-05-10T13:12:00;6.40;6.40;2.40
65556;PMS3003;52200;53.490;14.376;2023-05-10T13:14:25;9.00;8.25;2.25
65556;PMS3003;52200;53.490;14.376;2023-05-10T13:16:51;8.80;8.20;3.00
65556;PMS3003;52200;53.490;14.376;2023-05-10T13:19:17;9.75;8.00;3.00
65556;PMS3003;52200;53.490;14.376;2023-05-10T13:21:42;8.00;7.00;2.00
65556;PMS3003;52200;53.490;14.376;2023-05-10T13:24:09;9.60;9.00;2.60
65556;PMS3003;52200;53.490;14.376;2023-05-10T13:26:35;8.40;8.00;3.00
65556;PMS3003;52200;53.490;14.376;2023-05-10T13:29:01;12.40;9.00;3.00
65556;PMS3003;52200;53.490;14.376;2023-05-10T13:31:28;12.40;9.40;3.00
65556;PMS3003;52200;53.490;14.376;2023-05-10T13:33:53;8.50;7.25;3.00
65556;PMS3003;52200;53.490;14.376;2023-05-10T13:36:19;8.50;7.75;3.00
65556;PMS3003;52200;53.490;14.376;2023-05-10T13:38:44;8.50;7.50;2.50
65556;PMS3003;52200;53.490;14.376;2023-05-10T13:41:10;8.00;8.00;3.00
65556;PMS3003;52200;53.490;14.376;2023-05-10T13:43:36;6.00;6.00;2.75
65556;PMS3003;52200;53.490;14.376;2023-05-10T13:46:01;8.25;8.00;3.00
65556;PMS3003;52200;53.490;14.376;2023-05-10T13:48:27;5.80;5.20;1.20
65556;PMS3003;52200;53.490;14.376;2023-05-10T13:50:53;8.00;7.00;2.25
65556;PMS3003;52200;53.490;14.376;2023-05-10T13:53:18;10.00;9.00;3.00
65556;PMS3003;52200;53.490;14.376;2023-05-10T13:55:44;7.50;7.50;3.00
65556;PMS3003;52200;53.490;14.376;2023-05-10T13:58:09;8.25;7.50;2.50
65556;PMS3003;52200;53.490;14.376;2023-05-10T14:00:35;7.25;7.25;2.00
65556;PMS3003;52200;53.490;14.376;2023-05-10T14:03:00;7.25;6.25;2.00
65556;PMS3003;52200;53.490;14.376;2023-05-10T14:05:26;7.75;7.75;3.00
65556;PMS3003;52200;53.490;14.376;2023-05-10T14:07:51;6.75;6.75;2.00
65556;PMS3003;52200;53.490;14.376;2023-05-10T14:10:17;8.00;7.50;2.25
65556;PMS3003;52200;53.490;14.376;2023-05-10T14:12:42;8.75;8.00;3.00
65556;PMS3003;52200;53.490;14.376;2023-05-10T14:15:08;10.00;9.00;3.25
65556;PMS3003;52200;53.490;14.376;2023-05-10T14:17:35;8.80;7.80;3.00
65556;PMS3003;52200;53.490;14.376;2023-05-10T14:20:00;9.50;8.00;3.00
65556;PMS3003;52200;53.490;14.376;2023-05-10T14:22:26;7.80;7.60;2.20
65556;PMS3003;52200;53.490;14.376;2023-05-10T14:24:52;6.25;6.25;2.25
65556;PMS3003;52200;53.490;14.376;2023-05-10T14:27:17;8.50;8.50;2.50